createdAt,value
2023-04-14T00:01:16.578Z,20.67
2023-04-14T00:03:44.972Z,22.92
2023-04-14T00:06:12.496Z,22.02
2023-04-14T00:08:39.861Z,20.20
2023-04-14T00:11:06.582Z,22.02
2023-04-14T00:13:34.445Z,21.15
2023-04-14T00:16:01.853Z,21.70
2023-04-14T00:18:29.418Z,19.45
2023-04-14T00:20:56.649Z,19.48
2023-04-14T00:23:23.823Z,22.15
2023-04-14T00:25:51.654Z,25.77
2023-04-14T00:28:18.968Z,25.48
2023-04-14T00:30:46.567Z,21.27
2023-04-14T00:33:13.823Z,24.33
2023-04-14T00:35:41.363Z,23.02
2023-04-14T00:38:08.611Z,23.67
2023-04-14T00:40:36.167Z,19.85
2023-04-14T00:43:03.622Z,23.25
2023-04-14T00:45:31.144Z,21.05
2023-04-14T00:47:58.939Z,19.55
2023-04-14T00:50:26.527Z,20.73
2023-04-14T00:52:53.796Z,18.85
2023-04-14T00:55:21.724Z,18.20
2023-04-14T00:57:49.736Z,19.58
2023-04-14T01:00:17.582Z,20.67
2023-04-14T01:02:45.294Z,19.45
2023-04-14T01:05:12.865Z,18.77
2023-04-14T01:07:41.080Z,21.75
2023-04-14T01:10:08.828Z,18.38
2023-04-14T01:12:57.435Z,21.75
2023-04-14T01:15:55.148Z,19.80
2023-04-14T01:18:43.473Z,19.13
2023-04-14T01:21:27.073Z,17.35
2023-04-14T01:24:03.324Z,23.60
2023-04-14T01:26:31.610Z,20.35
2023-04-14T01:29:35.522Z,15.48
2023-04-14T01:32:07.027Z,21.83
2023-04-14T01:34:44.791Z,18.55
2023-04-14T01:37:18.142Z,20.25
2023-04-14T01:39:53.420Z,25.50
2023-04-14T01:42:27.063Z,22.60
2023-04-14T01:44:59.403Z,20.27
2023-04-14T01:47:28.190Z,19.48
2023-04-14T01:49:57.463Z,22.52
2023-04-14T01:52:25.680Z,17.95
2023-04-14T01:54:55.312Z,20.58
2023-04-14T01:57:25.559Z,21.63
2023-04-14T01:59:55.192Z,19.35
2023-04-14T02:02:26.311Z,22.27
2023-04-14T02:04:58.014Z,23.63
2023-04-14T02:07:27.263Z,18.63
2023-04-14T02:09:54.968Z,21.73
2023-04-14T02:12:25.236Z,19.02
2023-04-14T02:14:54.394Z,20.80
2023-04-14T02:17:22.375Z,18.42
2023-04-14T02:19:51.182Z,19.05
2023-04-14T02:22:18.590Z,19.38
2023-04-14T02:24:48.377Z,25.48
2023-04-14T02:27:32.515Z,25.05
2023-04-14T02:32:31.933Z,19.42
2023-04-14T02:35:07.527Z,21.88
2023-04-14T02:37:39.684Z,20.85
2023-04-14T02:40:31.121Z,19.40
2023-04-14T02:43:04.971Z,21.42
2023-04-14T02:45:34.172Z,23.17
2023-04-14T02:48:05.962Z,20.73
2023-04-14T02:50:34.688Z,21.90
2023-04-14T02:53:04.276Z,20.65
2023-04-14T02:55:31.882Z,23.30
2023-04-14T02:57:59.895Z,20.63
2023-04-14T03:00:27.789Z,20.25
2023-04-14T03:02:56.490Z,21.05
2023-04-14T03:05:24.716Z,19.88
2023-04-14T03:07:54.185Z,22.30
2023-04-14T03:10:23.688Z,27.80
2023-04-14T03:12:52.461Z,25.33
2023-04-14T03:15:22.331Z,24.10
2023-04-14T03:17:54.406Z,25.23
2023-04-14T03:20:23.534Z,26.48
2023-04-14T03:23:01.694Z,25.73
2023-04-14T03:25:30.772Z,24.85
2023-04-14T03:28:01.312Z,25.60
2023-04-14T03:30:32.243Z,23.65
2023-04-14T03:33:05.173Z,24.73
2023-04-14T03:35:33.282Z,26.77
2023-04-14T03:38:02.553Z,22.23
2023-04-14T03:40:35.124Z,20.52
2023-04-14T03:43:03.584Z,23.45
2023-04-14T03:45:32.994Z,26.30
2023-04-14T03:48:04.137Z,23.80
2023-04-14T03:50:37.449Z,22.13
2023-04-14T03:53:07.071Z,20.83
2023-04-14T03:55:36.287Z,21.63
2023-04-14T03:58:04.444Z,23.40
2023-04-14T04:00:31.403Z,20.83
2023-04-14T04:02:59.738Z,21.48
2023-04-14T04:05:27.853Z,22.33
2023-04-14T04:07:59.173Z,19.55
2023-04-14T04:10:27.313Z,18.58
2023-04-14T04:12:57.127Z,18.25
2023-04-14T04:15:25.342Z,21.25
2023-04-14T04:17:52.965Z,18.95
2023-04-14T04:20:22.497Z,19.08
2023-04-14T04:22:52.681Z,20.17
2023-04-14T04:25:20.084Z,17.92
2023-04-14T04:27:47.546Z,22.25
2023-04-14T04:30:17.135Z,22.13
2023-04-14T04:32:47.521Z,19.67
2023-04-14T04:35:15.185Z,14.98
2023-04-14T04:37:43.923Z,15.95
2023-04-14T04:40:11.156Z,20.30
2023-04-14T04:42:44.435Z,21.25
2023-04-14T04:45:11.867Z,21.25
2023-04-14T04:47:38.613Z,21.77
2023-04-14T04:50:05.888Z,22.27
2023-04-14T04:52:32.662Z,21.63
2023-04-14T04:54:59.351Z,22.83
2023-04-14T04:57:25.958Z,21.08
2023-04-14T04:59:52.652Z,23.42
2023-04-14T05:02:19.329Z,23.40
2023-04-14T05:04:46.113Z,22.48
2023-04-14T05:07:12.801Z,29.83
2023-04-14T05:09:39.472Z,29.23
2023-04-14T05:12:06.527Z,23.42
2023-04-14T05:14:33.198Z,22.40
2023-04-14T05:17:01.572Z,22.30
2023-04-14T05:19:28.924Z,25.45
2023-04-14T05:21:55.907Z,21.92
2023-04-14T05:24:24.860Z,21.45
2023-04-14T05:27:01.527Z,21.55
2023-04-14T05:29:38.404Z,19.80
2023-04-14T05:32:05.165Z,17.25
2023-04-14T05:34:31.934Z,15.45
2023-04-14T05:36:58.731Z,11.27
2023-04-14T05:39:25.493Z,11.85
2023-04-14T05:41:53.489Z,9.20
2023-04-14T05:44:20.290Z,12.02
2023-04-14T05:46:47.393Z,11.20
2023-04-14T05:49:14.145Z,10.50
2023-04-14T05:51:40.930Z,9.38
2023-04-14T05:54:08.233Z,11.18
2023-04-14T05:56:35.700Z,9.63
2023-04-14T05:59:02.327Z,8.77
2023-04-14T06:01:29.291Z,12.48
2023-04-14T06:03:56.275Z,12.23
2023-04-14T06:06:23.373Z,8.52
2023-04-14T06:08:50.179Z,9.07
2023-04-14T06:11:17.034Z,8.23
2023-04-14T06:13:43.686Z,10.80
2023-04-14T06:16:10.585Z,8.88
2023-04-14T06:18:37.380Z,8.70
2023-04-14T06:21:04.358Z,12.73
2023-04-14T06:23:31.803Z,14.32
2023-04-14T06:25:58.584Z,13.95
2023-04-14T06:28:26.478Z,9.38
2023-04-14T06:30:53.228Z,10.05
2023-04-14T06:36:48.470Z,8.50
2023-04-14T06:39:15.182Z,8.73
2023-04-14T06:41:41.918Z,11.25
2023-04-14T06:44:08.727Z,8.73
2023-04-14T06:46:37.581Z,7.78
2023-04-14T06:49:04.334Z,8.30
2023-04-14T06:51:32.952Z,11.68
2023-04-14T06:53:59.903Z,9.27
2023-04-14T06:56:27.054Z,9.63
2023-04-14T06:58:53.789Z,6.82
2023-04-14T07:01:20.735Z,10.38
2023-04-14T07:03:47.427Z,7.35
2023-04-14T07:06:17.191Z,6.20
2023-04-14T07:08:44.867Z,7.53
2023-04-14T07:11:12.054Z,6.38
2023-04-14T07:13:39.844Z,7.70
2023-04-14T07:16:08.125Z,9.38
2023-04-14T07:18:36.921Z,7.78
2023-04-14T07:21:03.941Z,6.65
2023-04-14T07:23:30.690Z,6.10
2023-04-14T07:25:59.025Z,7.13
2023-04-14T07:28:29.988Z,6.00
2023-04-14T07:30:56.945Z,10.43
2023-04-14T07:33:24.548Z,7.65
2023-04-14T07:36:02.229Z,7.57
2023-04-14T07:38:31.901Z,7.18
2023-04-14T07:40:58.680Z,8.10
2023-04-14T07:43:25.440Z,5.18
2023-04-14T07:45:53.369Z,6.55
2023-04-14T07:48:21.784Z,6.47
2023-04-14T07:50:50.110Z,6.13
2023-04-14T07:53:16.946Z,5.65
2023-04-14T07:55:43.574Z,7.25
2023-04-14T07:58:15.419Z,5.72
2023-04-14T08:00:42.630Z,6.85
2023-04-14T08:03:10.136Z,5.70
2023-04-14T08:05:37.199Z,5.60
2023-04-14T08:08:03.956Z,6.40
2023-04-14T08:10:30.852Z,5.90
2023-04-14T08:12:57.617Z,7.07
2023-04-14T08:15:24.283Z,6.20
2023-04-14T08:17:51.288Z,6.18
2023-04-14T08:20:18.177Z,5.30
2023-04-14T08:22:44.802Z,5.15
2023-04-14T08:25:12.400Z,5.95
2023-04-14T08:27:39.263Z,4.63
2023-04-14T08:30:07.977Z,4.97
2023-04-14T08:32:36.252Z,5.72
2023-04-14T08:35:37.344Z,5.18
2023-04-14T08:37:49.897Z,5.90
2023-04-14T08:40:18.089Z,4.68
2023-04-14T08:42:46.133Z,5.20
2023-04-14T08:45:13.421Z,4.70
2023-04-14T08:47:41.418Z,3.95
2023-04-14T08:50:15.768Z,4.57
2023-04-14T08:52:43.572Z,5.65
2023-04-14T08:55:11.910Z,4.40
2023-04-14T08:57:38.884Z,4.15
2023-04-14T09:00:06.482Z,5.43
2023-04-14T09:02:34.008Z,4.32
2023-04-14T09:05:01.482Z,6.63
2023-04-14T09:07:30.030Z,3.67
2023-04-14T09:09:57.873Z,5.55
2023-04-14T09:12:27.485Z,4.18
2023-04-14T09:14:56.587Z,4.05
2023-04-14T09:17:24.156Z,4.45
2023-04-14T09:20:34.832Z,3.55
2023-04-14T09:22:37.854Z,4.07
2023-04-14T09:25:05.231Z,5.05
2023-04-14T09:27:32.148Z,6.10
2023-04-14T09:30:01.538Z,5.07
2023-04-14T09:32:28.408Z,4.80
2023-04-14T09:34:56.689Z,4.38
2023-04-14T09:37:25.183Z,5.43
2023-04-14T09:39:53.073Z,4.15
2023-04-14T09:42:20.047Z,4.38
2023-04-14T09:45:07.325Z,3.42
2023-04-14T09:47:34.083Z,4.80
2023-04-14T09:50:03.781Z,5.18
2023-04-14T09:52:42.072Z,4.40
2023-04-14T09:55:18.689Z,4.18
2023-04-14T09:57:50.110Z,4.93
2023-04-14T10:00:18.608Z,4.38
2023-04-14T10:02:50.587Z,3.78
2023-04-14T10:05:21.574Z,6.10
2023-04-14T10:07:49.358Z,3.20
2023-04-14T10:10:17.456Z,3.75
2023-04-14T10:12:46.017Z,4.05
2023-04-14T10:15:15.513Z,4.10
2023-04-14T10:17:43.661Z,4.20
2023-04-14T10:20:11.046Z,5.00
2023-04-14T10:22:40.398Z,4.18
2023-04-14T10:25:09.413Z,3.90
2023-04-14T10:27:37.039Z,4.82
2023-04-14T10:30:07.414Z,4.60
2023-04-14T10:32:37.601Z,4.13
2023-04-14T10:35:10.852Z,4.25
2023-04-14T10:37:37.777Z,4.95
2023-04-14T10:40:07.493Z,4.85
2023-04-14T10:42:54.732Z,4.43
2023-04-14T10:45:22.904Z,5.00
2023-04-14T10:47:50.384Z,5.97
2023-04-14T10:50:19.741Z,6.20
2023-04-14T10:52:52.263Z,5.68
2023-04-14T10:55:23.605Z,3.50
2023-04-14T10:57:51.520Z,5.95
2023-04-14T11:00:22.893Z,5.10
2023-04-14T11:02:59.578Z,5.20
2023-04-14T11:05:27.672Z,5.95
2023-04-14T11:07:59.927Z,5.03
2023-04-14T11:10:31.816Z,5.00
2023-04-14T11:13:04.989Z,5.05
2023-04-14T11:15:47.533Z,4.70
2023-04-14T11:18:16.890Z,6.70
2023-04-14T11:20:44.589Z,4.90
2023-04-14T11:23:15.137Z,6.57
2023-04-14T11:25:42.019Z,5.20
2023-04-14T11:28:09.367Z,7.63
2023-04-14T11:30:36.140Z,5.10
2023-04-14T11:33:03.897Z,4.28
2023-04-14T11:35:32.201Z,6.25
2023-04-14T11:38:00.462Z,4.43
2023-04-14T11:40:27.824Z,4.63
2023-04-14T11:42:59.543Z,3.55
2023-04-14T11:45:30.916Z,6.63
2023-04-14T11:48:06.364Z,5.80
2023-04-14T11:50:39.509Z,4.80
2023-04-14T11:53:10.581Z,5.90
2023-04-14T11:55:37.500Z,5.97
2023-04-14T11:58:05.519Z,5.72
2023-04-14T12:00:32.390Z,5.97
2023-04-14T12:03:03.578Z,5.13
2023-04-14T12:05:32.046Z,4.57
2023-04-14T12:08:00.979Z,5.28
2023-04-14T12:10:29.420Z,5.45
2023-04-14T12:13:07.491Z,5.88
2023-04-14T12:15:42.637Z,6.88
2023-04-14T12:18:14.055Z,6.43
2023-04-14T12:20:55.690Z,5.75
2023-04-14T12:23:23.769Z,6.00
2023-04-14T12:25:52.546Z,7.28
2023-04-14T12:28:25.130Z,6.35
2023-04-14T12:30:53.360Z,6.65
2023-04-14T12:33:23.922Z,5.65
2023-04-14T12:35:51.835Z,5.43
2023-04-14T12:38:18.730Z,6.70
2023-04-14T12:40:48.101Z,8.57
2023-04-14T12:43:17.492Z,6.15
2023-04-14T12:45:46.271Z,6.63
2023-04-14T12:48:14.105Z,7.55
2023-04-14T12:50:41.073Z,7.65
2023-04-14T12:53:28.955Z,6.30
2023-04-14T12:56:09.818Z,5.75
2023-04-14T12:58:41.533Z,7.05
2023-04-14T13:01:09.380Z,6.00
2023-04-14T13:03:42.460Z,8.32
2023-04-14T13:06:11.967Z,6.45
2023-04-14T13:08:43.951Z,8.00
2023-04-14T13:11:12.268Z,5.35
2023-04-14T13:13:39.092Z,5.55
2023-04-14T13:16:14.670Z,8.57
2023-04-14T13:18:43.511Z,6.25
2023-04-14T13:21:10.552Z,5.45
2023-04-14T13:23:37.319Z,5.80
2023-04-14T13:26:04.308Z,5.13
2023-04-14T13:28:31.647Z,5.78
2023-04-14T13:30:58.672Z,9.27
2023-04-14T13:33:26.651Z,5.93
2023-04-14T13:35:55.852Z,7.28
2023-04-14T13:38:23.709Z,5.85
2023-04-14T13:40:50.421Z,5.50
2023-04-14T13:43:19.326Z,6.10
2023-04-14T13:45:47.160Z,5.53
2023-04-14T13:48:14.902Z,5.75
2023-04-14T13:50:41.747Z,8.23
2023-04-14T13:53:08.541Z,5.93
2023-04-14T13:55:36.389Z,6.50
2023-04-14T13:58:04.513Z,6.90
2023-04-14T14:00:31.732Z,7.32
2023-04-14T14:02:58.574Z,5.85
2023-04-14T14:05:25.830Z,7.97
2023-04-14T14:07:52.932Z,15.75
2023-04-14T14:10:19.852Z,5.40
2023-04-14T14:12:46.635Z,6.95
2023-04-14T14:15:13.711Z,5.40
2023-04-14T14:17:41.136Z,6.22
2023-04-14T14:20:09.623Z,5.95
2023-04-14T14:22:36.839Z,5.93
2023-04-14T14:25:15.174Z,6.57
2023-04-14T14:27:45.711Z,8.25
2023-04-14T14:30:12.921Z,7.97
2023-04-14T14:32:39.792Z,6.82
2023-04-14T14:35:06.930Z,8.98
2023-04-14T14:37:33.793Z,9.05
2023-04-14T14:40:00.572Z,8.98
2023-04-14T14:42:27.337Z,7.65
2023-04-14T14:44:54.510Z,8.68
2023-04-14T14:47:22.130Z,7.43
2023-04-14T14:49:59.526Z,7.55
2023-04-14T14:52:34.510Z,7.85
2023-04-14T14:57:29.502Z,8.60
2023-04-14T14:59:57.325Z,8.52
2023-04-14T15:02:25.630Z,10.77
2023-04-14T15:04:52.646Z,7.30
2023-04-14T15:07:19.677Z,9.50
2023-04-14T15:09:47.538Z,9.38
2023-04-14T15:12:14.347Z,8.27
2023-04-14T15:14:41.287Z,7.30
2023-04-14T15:17:08.572Z,6.80
2023-04-14T15:19:35.350Z,7.53
2023-04-14T15:22:02.065Z,7.70
2023-04-14T15:24:28.946Z,9.45
2023-04-14T15:26:56.343Z,8.43
2023-04-14T15:29:25.177Z,6.75
2023-04-14T15:31:52.020Z,7.20
2023-04-14T15:34:18.805Z,6.13
2023-04-14T15:36:45.601Z,6.55
2023-04-14T15:39:12.319Z,6.30
2023-04-14T15:41:38.990Z,6.47
2023-04-14T15:44:05.947Z,8.50
2023-04-14T15:46:32.742Z,6.53
2023-04-14T15:48:59.428Z,7.60
2023-04-14T15:51:26.325Z,7.00
2023-04-14T15:53:53.036Z,5.63
2023-04-14T15:56:23.556Z,5.80
2023-04-14T15:58:50.658Z,7.70
2023-04-14T16:01:17.569Z,4.78
2023-04-14T16:03:44.559Z,6.57
2023-04-14T16:06:11.656Z,6.15
2023-04-14T16:08:38.463Z,6.80
2023-04-14T16:11:05.239Z,5.00
2023-04-14T16:13:31.956Z,49.78
2023-04-14T16:15:58.783Z,6.82
2023-04-14T16:18:25.516Z,7.05
2023-04-14T16:20:52.184Z,4.38
2023-04-14T16:23:18.823Z,4.45
2023-04-14T16:25:49.852Z,4.40
2023-04-14T16:28:16.779Z,4.30
2023-04-14T16:30:43.811Z,4.53
2023-04-14T16:33:10.658Z,4.82
2023-04-14T16:35:37.463Z,4.40
2023-04-14T16:38:08.516Z,4.57
2023-04-14T16:40:36.251Z,6.32
2023-04-14T16:43:03.443Z,5.90
2023-04-14T16:45:34.867Z,9.85
2023-04-14T16:48:01.826Z,6.20
2023-04-14T16:50:32.054Z,6.95
2023-04-14T16:52:58.727Z,5.30
2023-04-14T16:55:25.564Z,6.30
2023-04-14T16:57:52.272Z,5.72
2023-04-14T17:00:19.148Z,4.75
2023-04-14T17:02:46.160Z,7.15
2023-04-14T17:05:16.228Z,5.43
2023-04-14T17:07:43.317Z,4.95
2023-04-14T17:10:10.732Z,4.47
2023-04-14T17:12:37.400Z,4.35
2023-04-14T17:15:04.770Z,6.47
2023-04-14T17:17:32.149Z,3.80
2023-04-14T17:19:58.949Z,8.77
2023-04-14T17:22:25.670Z,5.05
2023-04-14T17:24:52.690Z,5.72
2023-04-14T17:27:19.527Z,6.20
2023-04-14T17:29:46.475Z,6.60
2023-04-14T17:32:13.664Z,5.57
2023-04-14T17:34:40.609Z,6.25
2023-04-14T17:37:07.455Z,6.57
2023-04-14T17:39:34.135Z,7.40
2023-04-14T17:42:01.633Z,5.00
2023-04-14T17:44:33.435Z,8.68
2023-04-14T17:47:11.265Z,8.77
2023-04-14T17:49:38.473Z,4.85
2023-04-14T17:52:07.232Z,8.20
2023-04-14T17:54:34.835Z,5.30
2023-04-14T17:57:01.632Z,6.28
2023-04-14T17:59:28.279Z,8.15
2023-04-14T18:01:55.143Z,9.55
2023-04-14T18:04:21.853Z,6.63
2023-04-14T18:06:49.113Z,6.75
2023-04-14T18:09:15.994Z,7.00
2023-04-14T18:11:42.953Z,7.57
2023-04-14T18:14:09.613Z,9.50
2023-04-14T18:16:36.294Z,7.60
2023-04-14T18:19:03.198Z,6.13
2023-04-14T18:21:30.071Z,8.27
2023-04-14T18:26:26.845Z,8.13
2023-04-14T18:28:53.856Z,7.45
2023-04-14T18:31:20.647Z,7.38
2023-04-14T18:33:47.640Z,8.57
2023-04-14T18:36:14.284Z,7.03
2023-04-14T18:38:41.228Z,8.30
2023-04-14T18:41:08.480Z,7.57
2023-04-14T18:43:35.204Z,8.77
2023-04-14T18:46:04.158Z,8.80
2023-04-14T18:48:30.961Z,7.93
2023-04-14T18:51:08.279Z,7.55
2023-04-14T18:53:35.035Z,9.10
2023-04-14T18:56:02.047Z,9.40
2023-04-14T18:58:30.501Z,8.15
2023-04-14T19:00:57.597Z,8.20
2023-04-14T19:03:24.498Z,10.85
2023-04-14T19:05:51.192Z,9.20
2023-04-14T19:08:17.894Z,10.20
2023-04-14T19:10:48.272Z,8.02
2023-04-14T19:13:15.644Z,8.57
2023-04-14T19:15:43.008Z,11.80
2023-04-14T19:18:10.609Z,7.47
2023-04-14T19:20:37.954Z,12.55
2023-04-14T19:23:04.743Z,7.35
2023-04-14T19:25:31.450Z,8.45
2023-04-14T19:28:01.363Z,9.60
2023-04-14T19:30:29.359Z,10.60
2023-04-14T19:32:56.305Z,7.63
2023-04-14T19:35:23.958Z,8.50
2023-04-14T19:37:55.748Z,9.48
2023-04-14T19:40:22.673Z,9.35
2023-04-14T19:42:49.433Z,11.63
2023-04-14T19:45:16.107Z,12.45
2023-04-14T19:47:42.889Z,10.85
2023-04-14T19:50:09.907Z,9.10
2023-04-14T19:52:36.792Z,8.85
2023-04-14T19:55:03.606Z,9.43
2023-04-14T19:57:30.323Z,9.40
2023-04-14T19:59:57.267Z,10.27
2023-04-14T20:02:25.336Z,7.55
2023-04-14T20:04:57.074Z,8.90
2023-04-14T20:07:23.731Z,8.77
2023-04-14T20:09:50.445Z,8.05
2023-04-14T20:12:17.299Z,9.05
2023-04-14T20:14:45.081Z,9.20
2023-04-14T20:17:12.668Z,7.20
2023-04-14T20:19:39.320Z,10.40
2023-04-14T20:22:06.647Z,11.15
2023-04-14T20:24:33.353Z,9.15
2023-04-14T20:27:00.539Z,10.52
2023-04-14T20:29:27.177Z,6.82
2023-04-14T20:31:53.796Z,12.40
2023-04-14T20:34:21.092Z,11.50
2023-04-14T20:36:47.894Z,11.70
2023-04-14T20:39:14.559Z,11.77
2023-04-14T20:41:41.368Z,10.55
2023-04-14T20:44:08.307Z,7.93
2023-04-14T20:46:35.272Z,7.78
2023-04-14T20:49:03.911Z,12.52
2023-04-14T20:51:32.410Z,10.45
2023-04-14T20:54:00.044Z,11.23
2023-04-14T20:56:28.728Z,8.57
2023-04-14T20:58:57.036Z,9.25
2023-04-14T21:01:26.143Z,10.82
2023-04-14T21:03:53.081Z,10.10
2023-04-14T21:06:19.981Z,11.40
2023-04-14T21:08:48.254Z,10.45
2023-04-14T21:11:18.497Z,12.73
2023-04-14T21:15:26.447Z,12.68
2023-04-14T21:16:33.502Z,8.52
2023-04-14T21:19:02.421Z,8.60
2023-04-14T21:21:29.322Z,10.13
2023-04-14T21:23:55.987Z,10.88
2023-04-14T21:26:24.036Z,11.82
2023-04-14T21:28:50.974Z,9.35
2023-04-14T21:31:17.758Z,10.57
2023-04-14T21:33:46.182Z,10.82
2023-04-14T21:36:12.909Z,14.20
2023-04-14T21:38:39.782Z,11.10
2023-04-14T21:41:08.176Z,9.00
2023-04-14T21:43:35.078Z,9.90
2023-04-14T21:46:02.080Z,9.80
2023-04-14T21:48:29.132Z,10.82
2023-04-14T21:50:55.854Z,9.60
2023-04-14T21:53:22.917Z,10.18
2023-04-14T21:56:08.631Z,10.23
2023-04-14T21:58:36.769Z,8.57
2023-04-14T22:01:03.678Z,11.65
2023-04-14T22:03:30.953Z,8.55
2023-04-14T22:05:57.699Z,10.85
2023-04-14T22:08:24.414Z,10.63
2023-04-14T22:10:52.528Z,9.60
2023-04-14T22:13:19.255Z,9.15
2023-04-14T22:15:46.001Z,8.77
2023-04-14T22:18:13.111Z,11.02
2023-04-14T22:20:39.915Z,13.13
2023-04-14T22:23:07.916Z,9.68
2023-04-14T22:25:36.039Z,9.68
2023-04-14T22:28:03.633Z,10.95
2023-04-14T22:30:31.538Z,12.55
2023-04-14T22:32:59.309Z,9.75
2023-04-14T22:35:26.522Z,9.52
2023-04-14T22:37:53.593Z,11.10
2023-04-14T22:40:21.398Z,11.60
2023-04-14T22:42:48.093Z,10.18
2023-04-14T22:45:15.879Z,8.70
2023-04-14T22:47:43.473Z,9.07
2023-04-14T22:50:11.184Z,11.32
2023-04-14T22:52:38.644Z,9.93
2023-04-14T22:55:06.384Z,9.25
2023-04-14T22:57:34.365Z,10.13
2023-04-14T23:00:01.429Z,9.48
2023-04-14T23:02:30.070Z,9.05
2023-04-14T23:04:57.825Z,13.05
2023-04-14T23:07:25.822Z,13.18
2023-04-14T23:09:52.808Z,9.70
2023-04-14T23:12:20.285Z,10.57
2023-04-14T23:14:47.401Z,11.00
2023-04-14T23:17:14.735Z,13.57
2023-04-14T23:19:42.162Z,11.70
2023-04-14T23:22:08.766Z,9.68
2023-04-14T23:24:36.648Z,10.88
2023-04-14T23:27:04.296Z,11.60
2023-04-14T23:29:32.137Z,11.32
2023-04-14T23:31:58.760Z,10.93
2023-04-14T23:34:25.800Z,13.23
2023-04-14T23:36:53.234Z,13.95
2023-04-14T23:39:20.372Z,15.75
2023-04-14T23:41:48.283Z,11.25
2023-04-14T23:44:16.242Z,11.00
2023-04-14T23:46:43.240Z,9.40
2023-04-14T23:49:24.310Z,11.02
2023-04-14T23:51:57.895Z,11.82
2023-04-14T23:54:25.504Z,10.05
2023-04-14T23:56:52.916Z,10.23
2023-04-14T23:59:20.395Z,10.38
